Kalaheo, HI

4:55 PM HST on July 13, 2014 (GMT -1000)
Lihue (PHLI) Elev 102 ft | 21.98 °N, 159.34 °W | Change Station

Current weather conditions updated 1 hour ago

Clear
Clear
81 °F
Feels Like 85 °F
N
12
Wind Variable Wind from NE

Tomorrow is forecast to be Cooler than today. Scattered thunderstorms.

Today
High -- | Low -- °F
--% Chance of Precip.
Yesterday
High -- | Low -- °F
Precip. -- in
6:02 AM 7:24 PM
Waning Gibbous, 96% visible
Pressure 30.03 in
Visibility 10.0 miles
Clouds Clear
Heat Index 85 °F
Dew Point 72 °F
Humidity 74%
Rainfall 0.18 in
Snow Depth Not available.
UV 7 out of 12
Pollen Not available.
Air Quality Not available.
Flu Activity Sporadic
METAR PHLI 140153Z 05010KT 10SM CLR 27/22 A3003 RMK AO2 SLP167 T02720222 $

More Conditions Fewer Conditions

Pressure 30.03 in
Visibility 10.0 miles
Clouds Clear
Heat Index 85 °F
Dew Point 72 °F
Humidity 74%
Rainfall 0.18 in
Snow Depth Not available.
UV 7 out of 12
Pollen Not available.
Air Quality Not available.
Flu Activity Sporadic
METAR PHLI 140153Z 05010KT 10SM CLR 27/22 A3003 RMK AO2 SLP167 T02720222 $

More Conditions Fewer Conditions

10-Day Weather Forecast

Almanac

Astronomy

Jul. 13, 2014 Rise Set
Actual Time 6:02 AM HST 7:24 PM HST
Civil Twilight 5:38 AM HST 7:49 PM HST
Nautical Twilight 5:09 AM HST 8:18 PM HST
Astronomical Twilight 4:38 AM HST 8:48 PM HST
Moon 8:42 PM HST (7/13) 7:30 AM HST (7/13)
Length of Visible Light 14h 10m
Length of Day
13h 21m
Tomorrow will be 0m 35s shorter.
Waning Gibbous, 96% of the Moon is Illuminated
Today
Waning Gibbous
Jul 18
Last Quarter
Jul 26
New
Aug 3
First Quarter
Aug 10
Full

Today's Extremes

State Highs State Lows

Community

WunderPhotos

Upload Photos

1,733,536 photos uploaded!

Nearby

Snow Depth

Station Depth Elevation
No new snow has been reported.

Earthquake Activity

City Distance Mag. Time & Date
No recent earthquake activity has been reported nearby.
Minimum magnitude displayed is 2.5.

Coastal Water Temperatures

Place Temperature
No Stations Reporting

Nearby Weather Stations

Station Location Temp. Heat Index Dew Point Humidity Wind Precip. Elev Updated Type
Koloa Landing - Whaler's Cove, Koloa, HI 81.1 °F 85 °F 71 °F 71% NNE  at  1.8 mph 0.00 in / hr 25 ft 4:48 PM HST Rapid Fire
Wailua, Kapaa, HI 80.8 °F 85 °F 73 °F 77% South  at  2.2 mph 0.00 in / hr 355 ft 4:54 PM HST Rapid Fire
Pooku, Princeville, HI 78.9 °F 82 °F 71 °F 78% East  at  0.0 mph 0.00 in / hr 480 ft 4:54 PM HST Rapid Fire
Na Pali Properties on Kauai, Hanalei, HI 79.9 °F 83 °F 69 °F 69% SE  at  6.7 mph 0.00 in / hr 36 ft 4:55 PM HST Rapid Fire
Kalihiwai Ridge, Kilauea, HI 79.1 °F 83 °F 74 °F 83% SE  at  1.0 mph 0.00 in / hr 300 ft 4:55 PM HST Rapid Fire
North Shore of Kauai, Princeville, HI 77.1 °F 79 °F 71 °F 82% ENE  at  12.1 mph 0.00 in / hr 200 ft 4:55 PM HST Rapid Fire

Show More Stations Show Fewer Stations